Hlavní strana
METAR-TAF:

METAR-TAF

Letiště :

Montería, Kolumbie

zeměpisná šířka: 08-49N, zeměpisná délka: 075-51W, výška: 20 m

Aktuální stav počasí

Zpráva byla vytvořena před 4 hodinami a 43 minutami, v 04:00 UTC
Bezvětří
Teplota 26°C
Vlhkost vzduchu 79%
Tlak 1013 hPa
Viditelnost 10 km a více
Skoro jasno ve výšce 2200 ft

METAR: SKMR 240400Z 00000KT 9999 FEW022 26/22 A2992

Čas: 03:43 (08:43 UTC)


TAF: chybějící

Stav a předpovědi počasí z více než 4 000 letišť (zprávy METAR a TAF).

Červené a žluté tečky na mapě představují dostupné meteorologické stanice.

Když kurzor umístíte na tečku, zobrazí se název stanice.

Pak kliknutím zobrazíte stav a předpověď počasí.

Chcete-li změnit mapu, kliknutím na zelené tlačítko se znaménkem +mapu přiblížíte, kliknutím na zelené tlačítko se znaménkem – mapu oddálíte a kliknutím na zelené šipky přejdete na sousední mapy.


METAR-TAF: